createdAt,value
2023-05-08T00:00:59.649Z,42.33
2023-05-08T00:03:27.953Z,40.15
2023-05-08T00:05:57.010Z,37.47
2023-05-08T00:08:25.232Z,42.35
2023-05-08T00:10:53.776Z,41.92
2023-05-08T00:13:21.842Z,41.63
2023-05-08T00:15:50.644Z,42.60
2023-05-08T00:18:18.345Z,43.67
2023-05-08T00:20:46.614Z,39.55
2023-05-08T00:23:14.628Z,41.22
2023-05-08T00:25:42.661Z,35.05
2023-05-08T00:28:10.397Z,40.45
2023-05-08T00:30:39.360Z,40.47
2023-05-08T00:33:07.350Z,44.90
2023-05-08T00:35:35.386Z,56.00
2023-05-08T00:38:03.801Z,42.13
2023-05-08T00:40:32.066Z,43.08
2023-05-08T00:43:00.225Z,47.08
2023-05-08T00:45:33.907Z,53.20
2023-05-08T00:48:04.335Z,48.75
2023-05-08T00:50:33.317Z,44.60
2023-05-08T00:53:04.060Z,49.72
2023-05-08T00:55:33.665Z,54.20
2023-05-08T00:58:01.543Z,49.63
2023-05-08T01:00:30.078Z,41.80
2023-05-08T01:02:58.969Z,42.50
2023-05-08T01:05:28.641Z,43.53
2023-05-08T01:07:56.936Z,43.67
2023-05-08T01:10:27.095Z,39.92
2023-05-08T01:13:19.895Z,38.33
2023-05-08T01:15:54.581Z,38.50
2023-05-08T01:18:38.387Z,38.95
2023-05-08T01:21:13.622Z,38.40
2023-05-08T01:24:07.595Z,41.25
2023-05-08T01:26:48.341Z,43.40
2023-05-08T01:29:53.480Z,38.25
2023-05-08T01:32:30.932Z,36.05
2023-05-08T01:35:18.308Z,38.63
2023-05-08T01:37:53.831Z,43.50
2023-05-08T01:40:58.856Z,40.25
2023-05-08T01:43:40.260Z,34.85
2023-05-08T01:46:14.148Z,30.88
2023-05-08T01:49:10.158Z,37.05
2023-05-08T01:51:59.871Z,36.17
2023-05-08T01:54:33.382Z,40.80
2023-05-08T01:59:30.419Z,48.40
2023-05-08T02:01:59.407Z,40.88
2023-05-08T02:04:28.187Z,44.03
2023-05-08T02:06:57.466Z,41.47
2023-05-08T02:09:27.422Z,42.78
2023-05-08T02:11:56.272Z,38.95
2023-05-08T02:14:26.448Z,39.70
2023-05-08T02:16:55.300Z,40.67
2023-05-08T02:19:26.034Z,42.30
2023-05-08T02:21:54.678Z,40.00
2023-05-08T02:24:23.946Z,38.58
2023-05-08T02:26:53.171Z,39.10
2023-05-08T02:29:23.276Z,33.60
2023-05-08T02:31:51.570Z,36.80
2023-05-08T02:34:20.800Z,33.28
2023-05-08T02:36:51.436Z,33.33
2023-05-08T02:39:21.062Z,35.85
2023-05-08T02:41:49.064Z,39.95
2023-05-08T02:44:18.422Z,43.10
2023-05-08T02:47:10.647Z,42.50
2023-05-08T02:49:47.130Z,38.60
2023-05-08T02:52:25.844Z,34.22
2023-05-08T02:55:03.082Z,39.10
2023-05-08T02:57:36.729Z,34.53
2023-05-08T03:00:11.535Z,34.40
2023-05-08T03:02:55.035Z,36.85
2023-05-08T03:05:32.333Z,36.58
2023-05-08T03:08:05.947Z,39.35
2023-05-08T03:10:35.760Z,39.90
2023-05-08T03:13:06.592Z,42.40
2023-05-08T03:15:42.341Z,37.38
2023-05-08T03:18:14.402Z,40.25
2023-05-08T03:20:45.964Z,42.22
2023-05-08T03:23:15.813Z,44.30
2023-05-08T03:25:44.286Z,41.15
2023-05-08T03:28:14.463Z,42.05
2023-05-08T03:30:43.896Z,40.92
2023-05-08T03:33:14.715Z,37.63
2023-05-08T03:35:43.051Z,41.78
2023-05-08T03:38:11.027Z,39.30
2023-05-08T03:40:39.508Z,39.28
2023-05-08T03:43:08.187Z,35.70
2023-05-08T03:45:38.783Z,36.60
2023-05-08T03:48:08.593Z,38.00
2023-05-08T03:50:38.806Z,36.58
2023-05-08T03:53:09.809Z,38.70
2023-05-08T03:55:38.461Z,42.92
2023-05-08T03:58:27.020Z,42.53
2023-05-08T04:01:05.334Z,45.88
2023-05-08T04:03:58.439Z,42.10
2023-05-08T04:06:48.602Z,38.60
2023-05-08T04:09:36.946Z,46.42
2023-05-08T04:12:17.456Z,46.10
2023-05-08T04:14:55.556Z,51.10
2023-05-08T04:17:43.702Z,49.33
2023-05-08T04:20:17.127Z,50.90
2023-05-08T04:22:48.771Z,47.63
2023-05-08T04:25:17.904Z,49.55
2023-05-08T04:27:47.347Z,51.85
2023-05-08T04:30:16.168Z,52.80
2023-05-08T04:32:46.858Z,51.25
2023-05-08T04:35:16.457Z,59.90
2023-05-08T04:37:46.047Z,60.70
2023-05-08T04:40:14.535Z,55.03
2023-05-08T04:42:44.214Z,52.42
2023-05-08T04:45:12.555Z,51.85
2023-05-08T04:47:41.553Z,53.60
2023-05-08T04:50:10.086Z,55.72
2023-05-08T04:52:38.571Z,52.70
2023-05-08T04:55:08.270Z,47.95
2023-05-08T04:57:39.220Z,45.97
2023-05-08T05:00:07.357Z,44.33
2023-05-08T05:05:08.416Z,49.25
2023-05-08T05:07:37.243Z,41.35
2023-05-08T05:10:06.569Z,37.97
2023-05-08T05:12:37.138Z,32.10
2023-05-08T05:15:05.866Z,35.67
2023-05-08T05:17:36.274Z,26.77
2023-05-08T05:20:05.142Z,23.45
2023-05-08T05:22:33.809Z,26.35
2023-05-08T05:25:02.244Z,21.90
2023-05-08T05:27:30.435Z,19.20
2023-05-08T05:29:58.951Z,14.98
2023-05-08T05:32:27.837Z,20.83
2023-05-08T05:34:56.177Z,15.40
2023-05-08T05:37:24.691Z,13.05
2023-05-08T05:39:54.433Z,11.05
2023-05-08T05:42:22.977Z,11.38
2023-05-08T05:44:50.714Z,7.72
2023-05-08T05:47:19.094Z,9.57
2023-05-08T05:49:49.294Z,10.95
2023-05-08T05:52:17.543Z,9.15
2023-05-08T05:54:47.197Z,9.20
2023-05-08T05:57:15.916Z,8.13
2023-05-08T05:59:43.677Z,11.00
2023-05-08T06:02:18.986Z,6.40
2023-05-08T06:04:47.888Z,7.18
2023-05-08T06:07:15.862Z,7.28
2023-05-08T06:09:44.128Z,6.35
2023-05-08T06:12:12.282Z,7.05
2023-05-08T06:14:40.575Z,6.55
2023-05-08T06:17:10.005Z,6.00
2023-05-08T06:19:38.126Z,6.80
2023-05-08T06:22:06.421Z,4.40
2023-05-08T06:24:35.929Z,5.68
2023-05-08T06:27:04.485Z,6.20
2023-05-08T06:29:32.368Z,5.50
2023-05-08T06:32:00.876Z,5.80
2023-05-08T06:34:28.807Z,5.93
2023-05-08T06:36:57.275Z,7.50
2023-05-08T06:39:25.292Z,3.60
2023-05-08T06:41:53.642Z,4.28
2023-05-08T06:44:30.030Z,6.18
2023-05-08T06:46:59.376Z,3.55
2023-05-08T06:49:27.024Z,3.13
2023-05-08T06:51:57.714Z,5.07
2023-05-08T06:54:25.772Z,3.10
2023-05-08T06:56:54.752Z,3.75
2023-05-08T06:59:23.498Z,5.85
2023-05-08T07:01:52.019Z,4.47
2023-05-08T07:04:19.952Z,4.95
2023-05-08T07:06:48.167Z,3.80
2023-05-08T07:09:19.784Z,4.63
2023-05-08T07:11:48.372Z,4.55
2023-05-08T07:14:16.137Z,6.25
2023-05-08T07:16:44.339Z,5.82
2023-05-08T07:19:11.725Z,5.43
2023-05-08T07:21:40.500Z,5.57
2023-05-08T07:24:08.753Z,4.15
2023-05-08T07:26:37.059Z,4.00
2023-05-08T07:29:05.064Z,4.25
2023-05-08T07:31:33.506Z,7.40
2023-05-08T07:34:01.481Z,4.40
2023-05-08T07:36:30.840Z,3.90
2023-05-08T07:38:58.837Z,4.70
2023-05-08T07:41:27.667Z,3.55
2023-05-08T07:43:56.452Z,3.00
2023-05-08T07:46:26.037Z,5.38
2023-05-08T07:48:54.631Z,5.00
2023-05-08T07:51:24.327Z,4.18
2023-05-08T07:53:52.792Z,3.72
2023-05-08T07:56:23.532Z,3.40
2023-05-08T07:58:51.775Z,4.50
2023-05-08T08:01:20.415Z,4.43
2023-05-08T08:03:49.099Z,4.57
2023-05-08T08:06:19.248Z,3.90
2023-05-08T08:08:47.934Z,3.75
2023-05-08T08:11:16.705Z,6.15
2023-05-08T08:13:45.294Z,6.20
2023-05-08T08:16:13.970Z,3.45
2023-05-08T08:18:41.880Z,2.97
2023-05-08T08:21:10.337Z,14.45
2023-05-08T08:23:38.890Z,6.03
2023-05-08T08:26:07.593Z,6.15
2023-05-08T08:28:36.055Z,4.93
2023-05-08T08:31:05.519Z,3.67
2023-05-08T08:33:33.948Z,4.78
2023-05-08T08:36:02.773Z,7.88
2023-05-08T08:38:30.963Z,4.32
2023-05-08T08:41:00.195Z,3.72
2023-05-08T08:43:29.723Z,7.07
2023-05-08T08:45:59.871Z,5.45
2023-05-08T08:48:28.838Z,3.33
2023-05-08T08:51:02.175Z,4.28
2023-05-08T08:53:36.874Z,5.43
2023-05-08T08:56:07.213Z,6.45
2023-05-08T08:58:50.221Z,5.07
2023-05-08T09:03:48.372Z,4.03
2023-05-08T09:06:19.926Z,5.95
2023-05-08T09:08:47.976Z,3.25
2023-05-08T09:11:16.498Z,4.55
2023-05-08T09:13:44.560Z,4.97
2023-05-08T09:16:13.266Z,3.92
2023-05-08T09:18:41.528Z,6.43
2023-05-08T09:21:09.609Z,4.35
2023-05-08T09:23:37.425Z,7.10
2023-05-08T09:26:06.036Z,4.25
2023-05-08T09:28:34.635Z,4.28
2023-05-08T09:31:03.384Z,3.08
2023-05-08T09:33:31.897Z,4.20
2023-05-08T09:36:00.773Z,4.10
2023-05-08T09:38:32.964Z,2.78
2023-05-08T09:41:16.535Z,7.28
2023-05-08T09:43:46.845Z,4.80
2023-05-08T09:46:25.679Z,5.93
2023-05-08T09:49:04.256Z,3.80
2023-05-08T09:51:33.860Z,4.18
2023-05-08T09:54:05.146Z,4.45
2023-05-08T09:56:39.706Z,4.17
2023-05-08T09:59:28.661Z,5.78
2023-05-08T10:01:58.218Z,3.60
2023-05-08T10:04:34.378Z,5.20
2023-05-08T10:07:04.521Z,5.10
2023-05-08T10:09:46.836Z,5.80
2023-05-08T10:12:16.512Z,4.13
2023-05-08T10:14:46.760Z,3.72
2023-05-08T10:17:17.032Z,2.78
2023-05-08T10:19:46.600Z,4.60
2023-05-08T10:22:16.966Z,8.32
2023-05-08T10:24:45.726Z,6.63
2023-05-08T10:27:42.813Z,5.90
2023-05-08T10:30:14.921Z,4.38
2023-05-08T10:32:52.195Z,4.50
2023-05-08T10:35:20.899Z,4.85
2023-05-08T10:37:49.989Z,3.47
2023-05-08T10:40:21.200Z,4.28
2023-05-08T10:42:49.869Z,3.85
2023-05-08T10:45:18.494Z,6.75
2023-05-08T10:48:24.808Z,19.25
2023-05-08T10:51:11.846Z,4.85
2023-05-08T10:53:58.396Z,5.47
2023-05-08T10:56:29.333Z,3.55
2023-05-08T10:59:00.406Z,4.65
2023-05-08T11:01:29.999Z,4.95
2023-05-08T11:04:00.556Z,4.70
2023-05-08T11:06:49.752Z,3.63
2023-05-08T11:09:23.956Z,5.32
2023-05-08T11:12:08.712Z,5.30
2023-05-08T11:14:42.807Z,6.07
2023-05-08T11:17:12.250Z,4.88
2023-05-08T11:20:00.268Z,5.70
2023-05-08T11:22:34.554Z,3.92
2023-05-08T11:25:06.730Z,5.50
2023-05-08T11:27:41.777Z,3.63
2023-05-08T11:30:33.737Z,10.63
2023-05-08T11:33:10.213Z,5.40
2023-05-08T11:36:12.293Z,3.17
2023-05-08T11:38:44.463Z,5.18
2023-05-08T11:41:24.346Z,3.00
2023-05-08T11:44:08.436Z,8.20
2023-05-08T11:46:44.229Z,4.13
2023-05-08T11:49:23.818Z,7.30
2023-05-08T11:51:56.922Z,7.32
2023-05-08T11:54:27.166Z,30.42
2023-05-08T11:56:56.585Z,43.03
2023-05-08T11:59:25.202Z,3.70
2023-05-08T12:02:06.860Z,15.73
2023-05-08T12:04:49.839Z,4.05
2023-05-08T12:07:19.389Z,4.20
2023-05-08T12:09:47.944Z,14.13
2023-05-08T12:12:17.644Z,18.45
2023-05-08T12:14:51.201Z,3.15
2023-05-08T12:17:20.528Z,4.47
2023-05-08T12:19:49.439Z,4.93
2023-05-08T12:22:19.017Z,2.53
2023-05-08T12:24:47.939Z,5.75
2023-05-08T12:27:17.893Z,3.85
2023-05-08T12:29:47.423Z,5.18
2023-05-08T12:32:16.598Z,3.88
2023-05-08T12:34:45.174Z,3.45
2023-05-08T12:37:24.159Z,2.72
2023-05-08T12:39:52.155Z,2.28
2023-05-08T12:42:20.583Z,3.80
2023-05-08T12:44:54.422Z,4.65
2023-05-08T12:47:25.125Z,4.93
2023-05-08T12:49:58.793Z,6.28
2023-05-08T12:52:29.273Z,3.20
2023-05-08T12:54:57.547Z,2.75
2023-05-08T12:57:25.793Z,3.30
2023-05-08T13:00:05.107Z,2.85
2023-05-08T13:02:37.237Z,4.55
2023-05-08T13:05:08.124Z,4.47
2023-05-08T13:07:37.026Z,2.65
2023-05-08T13:10:05.942Z,3.70
2023-05-08T13:12:34.873Z,4.10
2023-05-08T13:15:05.088Z,2.65
2023-05-08T13:17:33.710Z,4.57
2023-05-08T13:20:05.167Z,4.57
2023-05-08T13:25:02.475Z,3.13
2023-05-08T13:27:31.024Z,3.95
2023-05-08T13:29:59.066Z,9.50
2023-05-08T13:32:27.484Z,4.50
2023-05-08T13:34:59.403Z,4.30
2023-05-08T13:37:29.288Z,3.72
2023-05-08T13:39:57.631Z,4.18
2023-05-08T13:42:26.290Z,8.07
2023-05-08T13:44:54.954Z,4.38
2023-05-08T13:47:24.543Z,3.45
2023-05-08T13:49:54.046Z,4.45
2023-05-08T13:52:23.500Z,3.85
2023-05-08T13:54:51.399Z,2.88
2023-05-08T13:57:20.197Z,3.55
2023-05-08T13:59:50.449Z,2.75
2023-05-08T14:02:21.336Z,4.20
2023-05-08T14:04:49.607Z,9.68
2023-05-08T14:07:19.073Z,3.03
2023-05-08T14:09:47.140Z,5.15
2023-05-08T14:12:16.700Z,3.22
2023-05-08T14:14:45.096Z,3.85
2023-05-08T14:17:14.200Z,3.63
2023-05-08T14:19:41.713Z,4.28
2023-05-08T14:22:10.068Z,4.40
2023-05-08T14:24:38.614Z,2.15
2023-05-08T14:27:07.014Z,4.30
2023-05-08T14:29:35.057Z,4.90
2023-05-08T14:32:03.844Z,13.65
2023-05-08T14:34:31.881Z,2.85
2023-05-08T14:37:01.329Z,6.78
2023-05-08T14:39:29.976Z,4.80
2023-05-08T14:42:20.677Z,3.65
2023-05-08T14:44:46.306Z,3.38
2023-05-08T14:47:14.721Z,4.43
2023-05-08T14:49:42.874Z,5.75
2023-05-08T14:52:11.064Z,7.20
2023-05-08T14:54:39.638Z,6.40
2023-05-08T14:57:08.522Z,6.03
2023-05-08T14:59:37.089Z,5.97
2023-05-08T15:02:06.940Z,8.32
2023-05-08T15:04:36.450Z,4.70
2023-05-08T15:07:05.694Z,6.65
2023-05-08T15:09:34.007Z,10.50
2023-05-08T15:12:03.720Z,2.63
2023-05-08T15:14:32.004Z,4.30
2023-05-08T15:17:00.429Z,4.10
2023-05-08T15:19:28.417Z,6.28
2023-05-08T15:21:57.150Z,3.67
2023-05-08T15:24:25.516Z,3.75
2023-05-08T15:26:53.781Z,3.00
2023-05-08T15:29:21.800Z,4.03
2023-05-08T15:31:51.010Z,5.32
2023-05-08T15:34:19.354Z,4.97
2023-05-08T15:36:49.193Z,4.57
2023-05-08T15:39:17.032Z,3.97
2023-05-08T15:41:45.681Z,4.25
2023-05-08T15:44:14.314Z,4.82
2023-05-08T15:46:42.897Z,3.50
2023-05-08T15:49:11.677Z,3.15
2023-05-08T15:51:40.824Z,4.78
2023-05-08T15:54:08.733Z,8.55
2023-05-08T15:56:38.033Z,4.18
2023-05-08T15:59:07.070Z,6.07
2023-05-08T16:01:36.562Z,6.20
2023-05-08T16:04:04.997Z,4.97
2023-05-08T16:06:33.079Z,3.80
2023-05-08T16:09:01.597Z,4.90
2023-05-08T16:11:33.188Z,4.10
2023-05-08T16:14:02.140Z,3.67
2023-05-08T16:16:30.945Z,3.72
2023-05-08T16:18:59.177Z,6.20
2023-05-08T16:21:28.159Z,2.70
2023-05-08T16:23:56.608Z,4.35
2023-05-08T16:26:24.474Z,4.93
2023-05-08T16:28:51.915Z,3.28
2023-05-08T16:31:20.074Z,4.03
2023-05-08T16:33:47.705Z,3.63
2023-05-08T16:36:16.296Z,5.38
2023-05-08T16:38:43.972Z,6.72
2023-05-08T16:41:13.704Z,4.35
2023-05-08T16:43:41.595Z,7.68
2023-05-08T16:46:10.113Z,3.25
2023-05-08T16:48:39.892Z,4.60
2023-05-08T16:51:09.241Z,4.03
2023-05-08T16:53:37.362Z,4.60
2023-05-08T16:56:05.844Z,7.38
2023-05-08T16:58:33.527Z,5.63
2023-05-08T17:01:01.400Z,3.80
2023-05-08T17:03:29.214Z,3.17
2023-05-08T17:06:00.835Z,5.95
2023-05-08T17:08:29.244Z,4.25
2023-05-08T17:10:58.175Z,3.90
2023-05-08T17:13:26.275Z,6.13
2023-05-08T17:15:54.687Z,5.65
2023-05-08T17:18:22.714Z,8.60
2023-05-08T17:20:51.165Z,6.35
2023-05-08T17:23:19.282Z,11.52
2023-05-08T17:25:48.322Z,3.05
2023-05-08T17:28:17.555Z,4.38
2023-05-08T17:30:48.141Z,5.00
2023-05-08T17:33:17.039Z,4.28
2023-05-08T17:35:46.747Z,11.20
2023-05-08T17:38:16.169Z,8.38
2023-05-08T17:40:47.061Z,11.68
2023-05-08T17:43:15.217Z,11.13
2023-05-08T17:45:44.599Z,14.20
2023-05-08T17:48:12.717Z,16.63
2023-05-08T17:50:42.665Z,10.40
2023-05-08T17:53:10.635Z,7.75
2023-05-08T17:55:38.970Z,7.55
2023-05-08T17:58:07.110Z,6.72
2023-05-08T18:00:36.512Z,7.50
2023-05-08T18:03:05.401Z,4.28
2023-05-08T18:05:34.053Z,6.05
2023-05-08T18:08:02.439Z,6.85
2023-05-08T18:10:32.733Z,5.70
2023-05-08T18:13:00.887Z,7.78
2023-05-08T18:15:30.054Z,9.70
2023-05-08T18:17:58.801Z,4.85
2023-05-08T18:20:27.443Z,5.75
2023-05-08T18:22:56.227Z,7.35
2023-05-08T18:25:24.406Z,5.35
2023-05-08T18:27:52.677Z,4.18
2023-05-08T18:30:21.371Z,5.97
2023-05-08T18:32:51.186Z,9.63
2023-05-08T18:35:21.941Z,7.43
2023-05-08T18:37:51.164Z,9.27
2023-05-08T18:40:19.902Z,6.13
2023-05-08T18:42:48.184Z,7.38
2023-05-08T18:45:17.206Z,6.93
2023-05-08T18:47:44.995Z,6.78
2023-05-08T18:50:13.681Z,5.65
2023-05-08T18:52:41.679Z,10.48
2023-05-08T18:55:10.651Z,15.10
2023-05-08T18:57:38.505Z,12.32
2023-05-08T19:00:07.450Z,20.15
2023-05-08T19:02:36.217Z,18.27
2023-05-08T19:05:05.163Z,9.27
2023-05-08T19:07:33.737Z,14.30
2023-05-08T19:10:02.137Z,15.75
2023-05-08T19:12:30.197Z,16.63
2023-05-08T19:14:58.529Z,20.00
2023-05-08T19:17:27.134Z,26.20
2023-05-08T19:19:55.876Z,25.08
2023-05-08T19:22:23.676Z,33.40
2023-05-08T19:24:52.214Z,30.75
2023-05-08T19:27:20.489Z,40.67
2023-05-08T19:29:49.137Z,44.67
2023-05-08T19:32:18.019Z,30.02
2023-05-08T19:34:46.911Z,28.70
2023-05-08T19:37:14.894Z,23.58
2023-05-08T19:39:43.403Z,24.73
2023-05-08T19:42:14.101Z,25.55
2023-05-08T19:44:45.841Z,19.83
2023-05-08T19:47:15.217Z,16.40
2023-05-08T19:49:44.097Z,14.18
2023-05-08T19:52:11.901Z,19.15
2023-05-08T19:54:40.544Z,23.42
2023-05-08T19:57:09.061Z,27.05
2023-05-08T19:59:37.716Z,40.30
2023-05-08T20:02:06.646Z,32.03
2023-05-08T20:04:48.699Z,32.33
2023-05-08T20:07:23.768Z,29.38
2023-05-08T20:09:52.233Z,23.50
2023-05-08T20:12:20.787Z,25.70
2023-05-08T20:14:49.526Z,25.40
2023-05-08T20:17:17.433Z,23.05
2023-05-08T20:19:45.908Z,28.58
2023-05-08T20:22:14.584Z,27.98
2023-05-08T20:24:43.594Z,29.23
2023-05-08T20:27:12.114Z,25.95
2023-05-08T20:29:40.955Z,25.95
2023-05-08T20:32:14.374Z,28.30
2023-05-08T20:34:44.879Z,25.02
2023-05-08T20:37:14.548Z,27.92
2023-05-08T20:39:43.448Z,23.23
2023-05-08T20:42:11.433Z,24.40
2023-05-08T20:44:39.867Z,29.35
2023-05-08T20:47:08.297Z,31.88
2023-05-08T20:49:37.176Z,41.55
2023-05-08T20:52:07.668Z,34.00
2023-05-08T20:54:36.268Z,34.38
2023-05-08T20:57:05.140Z,32.97
2023-05-08T20:59:34.181Z,31.52
2023-05-08T21:02:02.339Z,40.95
2023-05-08T21:04:31.272Z,42.13
2023-05-08T21:06:59.817Z,30.20
2023-05-08T21:09:28.385Z,35.30
2023-05-08T21:11:56.710Z,31.90
2023-05-08T21:14:25.001Z,40.45
2023-05-08T21:16:54.652Z,32.17
2023-05-08T21:19:24.171Z,34.47
2023-05-08T21:21:52.114Z,36.20
2023-05-08T21:24:21.658Z,36.97
2023-05-08T21:26:49.540Z,37.45
2023-05-08T21:29:17.966Z,37.80
2023-05-08T21:31:46.911Z,40.22
2023-05-08T21:34:16.545Z,41.17
2023-05-08T21:36:44.466Z,44.33
2023-05-08T21:39:15.357Z,39.13
2023-05-08T21:41:44.031Z,34.00
2023-05-08T21:44:13.620Z,34.38
2023-05-08T21:46:41.740Z,33.13
2023-05-08T21:49:11.321Z,37.95
2023-05-08T21:51:39.719Z,35.60
2023-05-08T21:54:09.361Z,37.55
2023-05-08T21:56:38.356Z,43.13
2023-05-08T21:59:08.223Z,39.45
2023-05-08T22:01:36.128Z,48.63
2023-05-08T22:04:04.593Z,52.33
2023-05-08T22:06:33.871Z,47.83
2023-05-08T22:09:02.781Z,50.28
2023-05-08T22:11:32.028Z,47.30
2023-05-08T22:14:00.077Z,39.25
2023-05-08T22:16:29.451Z,33.05
2023-05-08T22:18:57.368Z,35.55
2023-05-08T22:21:25.113Z,38.40
2023-05-08T22:23:53.222Z,42.25
2023-05-08T22:26:21.360Z,40.80
2023-05-08T22:28:49.682Z,43.13
2023-05-08T22:31:18.201Z,37.75
2023-05-08T22:33:46.365Z,34.97
2023-05-08T22:36:13.876Z,36.75
2023-05-08T22:38:41.998Z,37.50
2023-05-08T22:41:09.436Z,31.98
2023-05-08T22:43:38.328Z,37.83
2023-05-08T22:46:06.900Z,43.10
2023-05-08T22:48:34.907Z,37.42
2023-05-08T22:51:03.552Z,48.83
2023-05-08T22:53:31.499Z,56.08
2023-05-08T22:55:59.759Z,51.40
2023-05-08T22:58:29.516Z,56.30
2023-05-08T23:00:59.993Z,52.00
2023-05-08T23:03:28.199Z,47.90
2023-05-08T23:05:56.930Z,47.50
2023-05-08T23:08:25.045Z,43.28
2023-05-08T23:10:53.340Z,43.58
2023-05-08T23:13:20.846Z,43.88
2023-05-08T23:15:48.899Z,42.30
2023-05-08T23:18:16.293Z,42.38
2023-05-08T23:20:44.088Z,38.72
2023-05-08T23:23:11.470Z,41.13
2023-05-08T23:25:39.506Z,33.60
2023-05-08T23:28:06.813Z,46.60
2023-05-08T23:30:34.661Z,45.58
2023-05-08T23:33:02.777Z,45.53
2023-05-08T23:35:31.929Z,39.72
2023-05-08T23:37:59.221Z,46.22
2023-05-08T23:40:27.466Z,43.67
2023-05-08T23:42:55.130Z,48.00
2023-05-08T23:45:22.975Z,49.38
2023-05-08T23:47:50.534Z,48.63
2023-05-08T23:50:18.614Z,55.08
2023-05-08T23:52:46.405Z,49.47
2023-05-08T23:55:15.043Z,48.03
2023-05-08T23:57:43.273Z,42.30
